Time;durP1;ratioP1;P1;durP2;ratioP2;P2;SDS_P1;SDS_P2;PMS_P1;PMS_P2;Temp;Humidity;BMP_temperature;BMP_pressure;BME280_temperature;BME280_humidity;BME280_pressure;Samples;Min_cycle;Max_cycle;Signal;HPM_P1;HPM_P2
2022/04/27 00:00:30;;;;;;;4.15;2.38;;;;;;;;;;5055864;28;20044;-86
2022/04/27 00:02:56;;;;;;;3.53;2.80;;;;;;;;;;5063135;28;20029;-87
2022/04/27 00:05:23;;;;;;;4.07;1.92;;;;;;;;;;5062821;28;20037;-87
2022/04/27 00:07:49;;;;;;;5.20;2.85;;;;;;;;;;5053901;28;20056;-87
2022/04/27 00:10:15;;;;;;;4.43;2.20;;;;;;;;;;5066441;28;20070;-87
2022/04/27 00:12:41;;;;;;;5.43;3.58;;;;;;;;;;5055667;28;20136;-88
2022/04/27 00:15:07;;;;;;;4.15;2.70;;;;;;;;;;5064170;28;20123;-87
2022/04/27 00:17:34;;;;;;;9.00;2.93;;;;;;;;;;5064811;28;20028;-87
2022/04/27 00:20:00;;;;;;;2.53;2.08;;;;;;;;;;5064398;28;20103;-87
2022/04/27 00:22:26;;;;;;;6.50;2.78;;;;;;;;;;5067158;28;20128;-87
2022/04/27 00:24:52;;;;;;;3.60;2.22;;;;;;;;;;5054263;28;20100;-87
2022/04/27 00:27:18;;;;;;;4.25;2.13;;;;;;;;;;5065143;28;20036;-87
2022/04/27 00:29:44;;;;;;;5.05;2.60;;;;;;;;;;5065534;28;20032;-87
2022/04/27 00:32:10;;;;;;;4.63;2.65;;;;;;;;;;5064123;28;20029;-88
2022/04/27 00:34:36;;;;;;;7.78;3.85;;;;;;;;;;5065807;28;20040;-87
2022/04/27 00:37:02;;;;;;;4.70;2.78;;;;;;;;;;5067663;28;20017;-86
2022/04/27 00:39:28;;;;;;;7.32;2.50;;;;;;;;;;5065045;28;20072;-86
2022/04/27 00:42:00;;;;;;;8.35;3.35;;;;;;;;;;5054947;28;20131;-86
2022/04/27 00:44:29;;;;;;;3.53;2.25;;;;;;;;;;5058106;28;20139;-86
2022/04/27 00:46:56;;;;;;;4.28;2.65;;;;;;;;;;5065885;28;20020;-86
2022/04/27 00:49:22;;;;;;;6.03;3.05;;;;;;;;;;5051622;28;20094;-86
2022/04/27 00:51:49;;;;;;;3.35;2.35;;;;;;;;;;5053341;28;20025;-87
2022/04/27 00:54:15;;;;;;;5.10;3.22;;;;;;;;;;5056866;28;20037;-86
2022/04/27 00:56:42;;;;;;;6.43;3.28;;;;;;;;;;5060177;28;20112;-86
2022/04/27 00:59:09;;;;;;;3.15;2.03;;;;;;;;;;5064922;28;20047;-88
2022/04/27 01:01:35;;;;;;;6.57;3.15;;;;;;;;;;5067942;28;20060;-87
2022/04/27 01:04:01;;;;;;;5.40;3.28;;;;;;;;;;5065823;28;20035;-87
2022/04/27 01:06:28;;;;;;;3.15;1.92;;;;;;;;;;5050685;28;20051;-87
2022/04/27 01:08:54;;;;;;;4.47;3.10;;;;;;;;;;5055743;28;20171;-86
2022/04/27 01:11:20;;;;;;;6.00;2.88;;;;;;;;;;5055187;28;20028;-87
2022/04/27 01:13:46;;;;;;;3.20;2.80;;;;;;;;;;5058031;28;20036;-87
2022/04/27 01:16:12;;;;;;;2.95;2.17;;;;;;;;;;5065548;28;20478;-86
2022/04/27 01:18:38;;;;;;;4.00;2.17;;;;;;;;;;5054429;28;20029;-86
2022/04/27 01:21:04;;;;;;;4.07;1.88;;;;;;;;;;5054408;28;20032;-86
2022/04/27 01:23:30;;;;;;;3.92;2.95;;;;;;;;;;5055067;28;20035;-86
2022/04/27 01:26:05;;;;;;;4.13;2.53;;;;;;;;;;5068265;28;20025;-88
2022/04/27 01:28:31;;;;;;;6.72;2.75;;;;;;;;;;5066628;28;20042;-86
2022/04/27 01:31:01;;;;;;;3.33;3.03;;;;;;;;;;5052816;28;20032;-86
2022/04/27 01:33:28;;;;;;;3.28;2.40;;;;;;;;;;5054384;28;20095;-86
2022/04/27 01:35:54;;;;;;;3.90;2.50;;;;;;;;;;5076373;28;20040;-86
2022/04/27 01:38:20;;;;;;;7.65;2.92;;;;;;;;;;5061167;28;20287;-86
2022/04/27 01:40:53;;;;;;;3.67;2.05;;;;;;;;;;5051107;28;20472;-86
2022/04/27 01:43:19;;;;;;;3.17;2.72;;;;;;;;;;5052282;28;20036;-86
2022/04/27 01:45:45;;;;;;;3.85;2.72;;;;;;;;;;5065902;28;20023;-87
2022/04/27 01:48:12;;;;;;;3.33;2.90;;;;;;;;;;5067838;28;20063;-87
2022/04/27 01:50:38;;;;;;;5.40;2.43;;;;;;;;;;5059471;28;20021;-86
2022/04/27 01:55:50;;;;;;;4.93;2.55;;;;;;;;;;5065144;28;20097;-87
2022/04/27 01:58:16;;;;;;;4.18;2.42;;;;;;;;;;5055701;28;20053;-86
2022/04/27 02:00:42;;;;;;;7.07;2.92;;;;;;;;;;5065594;28;20055;-87
2022/04/27 02:03:08;;;;;;;5.20;3.40;;;;;;;;;;5054554;28;20032;-87
2022/04/27 02:05:34;;;;;;;4.05;2.50;;;;;;;;;;5057733;28;20081;-87
2022/04/27 02:08:01;;;;;;;6.38;2.63;;;;;;;;;;5064851;28;20060;-86
2022/04/27 02:10:27;;;;;;;6.53;4.03;;;;;;;;;;5050968;28;20115;-86
2022/04/27 02:12:53;;;;;;;2.97;2.67;;;;;;;;;;5063698;28;20040;-86
2022/04/27 02:15:19;;;;;;;3.30;2.88;;;;;;;;;;5054163;28;20032;-87
2022/04/27 02:17:45;;;;;;;7.55;2.90;;;;;;;;;;5058569;28;20040;-87
2022/04/27 02:20:11;;;;;;;6.90;2.90;;;;;;;;;;5060730;28;20024;-87
2022/04/27 02:22:37;;;;;;;5.25;3.35;;;;;;;;;;5062849;28;20123;-86
2022/04/27 02:25:04;;;;;;;6.32;3.40;;;;;;;;;;5066812;28;20021;-86
2022/04/27 02:27:30;;;;;;;11.77;3.30;;;;;;;;;;5066067;28;20798;-87
2022/04/27 02:29:56;;;;;;;3.97;2.80;;;;;;;;;;5062316;28;20036;-86
2022/04/27 02:32:23;;;;;;;5.57;3.50;;;;;;;;;;5062274;28;20040;-87
2022/04/27 02:34:51;;;;;;;5.72;2.20;;;;;;;;;;5062639;28;20409;-86
2022/04/27 02:37:17;;;;;;;6.38;3.38;;;;;;;;;;5065877;28;20025;-87
2022/04/27 02:39:43;;;;;;;4.57;3.17;;;;;;;;;;5064981;28;20478;-86
2022/04/27 02:42:09;;;;;;;5.85;2.58;;;;;;;;;;5055481;28;20704;-88
2022/04/27 02:44:36;;;;;;;9.45;4.72;;;;;;;;;;5065735;28;20032;-86
2022/04/27 02:47:02;;;;;;;7.30;2.70;;;;;;;;;;5053760;28;20554;-87
2022/04/27 02:52:13;;;;;;;5.88;3.35;;;8.80;97.90;;;;;;5050913;28;20534;-87
2022/04/27 02:54:39;;;;;;;7.80;3.87;;;;;;;;;;5064330;28;20468;-86
2022/04/27 02:57:06;;;;;;;6.95;3.08;;;;;;;;;;5066551;28;20091;-86
2022/04/27 02:59:32;;;;;;;6.88;3.53;;;;;;;;;;5061956;28;20106;-86
2022/04/27 03:01:58;;;;;;;6.97;2.47;;;;;;;;;;5061824;28;20067;-87
2022/04/27 03:04:24;;;;;;;5.65;3.33;;;;;;;;;;5065464;28;20811;-86
2022/04/27 03:06:50;;;;;;;6.38;4.15;;;;;;;;;;5064665;28;20043;-87
2022/04/27 03:09:16;;;;;;;4.18;3.35;;;;;;;;;;5062347;28;20563;-88
2022/04/27 03:11:42;;;;;;;7.35;3.97;;;;;;;;;;5064994;28;20122;-88
2022/04/27 03:14:08;;;;;;;7.53;4.03;;;;;;;;;;5063114;28;20505;-88
2022/04/27 03:16:34;;;;;;;8.40;3.47;;;;;;;;;;5066181;28;20055;-88
2022/04/27 03:19:01;;;;;;;8.05;3.28;;;;;;;;;;5066237;28;20036;-88
2022/04/27 03:21:29;;;;;;;7.30;3.67;;;7.80;99.10;;;;;;5055041;28;20032;-87
2022/04/27 03:23:55;;;;;;;4.53;2.88;;;;;;;;;;5059773;28;20048;-89
2022/04/27 03:26:21;;;;;;;8.90;2.95;;;;;;;;;;5061875;28;20020;-87
2022/04/27 03:28:47;;;;;;;5.82;2.47;;;7.70;99.20;;;;;;5065187;28;20024;-88
2022/04/27 03:31:13;;;;;;;6.97;3.97;;;;;;;;;;5064668;28;20039;-88
2022/04/27 03:33:39;;;;;;;5.32;3.42;;;;;;;;;;5049165;28;20033;-88
2022/04/27 03:36:08;;;;;;;4.78;2.72;;;8.10;89.20;;;;;;5051801;28;20559;-88
2022/04/27 03:38:34;;;;;;;8.15;3.63;;;;;;;;;;5057225;28;20451;-88
2022/04/27 03:41:00;;;;;;;8.63;3.72;;;;;;;;;;5062620;28;20033;-87
2022/04/27 03:43:26;;;;;;;5.30;3.05;;;;;;;;;;5051161;28;20033;-88
2022/04/27 03:45:52;;;;;;;6.93;3.20;;;;;;;;;;5067214;28;20573;-87
2022/04/27 03:48:18;;;;;;;7.05;3.47;;;;;;;;;;5061194;28;20032;-88
2022/04/27 03:50:44;;;;;;;7.90;3.47;;;;;;;;;;5060976;28;20481;-87
2022/04/27 03:53:10;;;;;;;9.43;3.63;;;;;;;;;;5061030;28;20067;-88
2022/04/27 03:55:36;;;;;;;6.35;3.78;;;;;;;;;;5052361;28;20078;-89
2022/04/27 03:58:03;;;;;;;4.47;2.92;;;7.60;99.30;;;;;;5059888;28;20036;-88
2022/04/27 04:00:29;;;;;;;6.93;3.47;;;;;;;;;;5052665;28;20104;-87
2022/04/27 04:02:55;;;;;;;4.63;3.10;;;;;;;;;;5055528;28;20032;-89
2022/04/27 04:05:22;;;;;;;7.03;3.92;;;;;;;;;;5055867;28;20029;-88
2022/04/27 04:07:48;;;;;;;6.50;3.00;;;;;;;;;;5057349;28;20039;-88
2022/04/27 04:10:14;;;;;;;6.72;2.67;;;;;;;;;;5067965;28;20036;-88
2022/04/27 04:12:40;;;;;;;8.73;3.90;;;;;;;;;;5056441;28;20072;-88
2022/04/27 04:15:06;;;;;;;5.93;3.17;;;7.60;99.00;;;;;;5064598;28;20439;-87
2022/04/27 04:17:32;;;;;;;5.18;3.30;;;;;;;;;;5062889;28;20040;-87
2022/04/27 04:19:58;;;;;;;6.57;4.00;;;;;;;;;;5065372;28;20021;-89
2022/04/27 04:22:24;;;;;;;7.10;3.17;;;;;;;;;;5067364;28;20041;-88
2022/04/27 04:30:19;;;;;;;7.82;3.00;;;;;;;;;;5066924;28;20047;-87
2022/04/27 04:32:45;;;;;;;4.32;2.63;;;;;;;;;;5064714;28;20040;-88
2022/04/27 04:35:11;;;;;;;6.18;3.53;;;;;;;;;;5065360;28;20098;-88
2022/04/27 04:37:37;;;;;;;7.72;3.72;;;;;;;;;;5066984;28;20021;-88
2022/04/27 04:40:03;;;;;;;7.53;3.60;;;;;;;;;;5053197;28;20039;-88
2022/04/27 04:42:29;;;;;;;6.28;3.17;;;;;;;;;;5055794;28;20489;-88
2022/04/27 04:44:56;;;;;;;7.40;3.60;;;;;;;;;;5055808;28;20056;-88
2022/04/27 04:47:22;;;;;;;4.57;2.85;;;;;;;;;;5060822;28;20058;-88
2022/04/27 04:49:48;;;;;;;5.80;3.25;;;;;;;;;;5067132;28;20040;-88
2022/04/27 04:52:14;;;;;;;8.63;3.47;;;;;;;;;;5053088;28;20025;-87
2022/04/27 04:54:40;;;;;;;5.95;2.85;;;;;;;;;;5067045;28;20094;-89
2022/04/27 04:57:06;;;;;;;7.10;3.65;;;;;;;;;;5055446;28;20489;-88
2022/04/27 04:59:32;;;;;;;4.20;2.72;;;;;;;;;;5055138;28;20033;-87
2022/04/27 05:01:58;;;;;;;6.90;3.00;;;;;;;;;;5056143;28;20638;-87
2022/04/27 05:04:24;;;;;;;5.57;3.45;;;;;;;;;;5055484;28;20024;-88
2022/04/27 05:06:50;;;;;;;7.43;3.47;;;;;;;;;;5053234;28;20044;-88
2022/04/27 05:09:16;;;;;;;6.50;4.40;;;;;;;;;;5056149;28;20025;-87
2022/04/27 05:11:43;;;;;;;6.85;4.05;;;;;;;;;;5060583;28;20036;-87
2022/04/27 05:14:09;;;;;;;5.68;4.15;;;;;;;;;;5066727;28;20121;-88
2022/04/27 05:16:36;;;;;;;10.27;4.03;;;;;;;;;;5065570;28;20139;-87
2022/04/27 05:19:03;;;;;;;7.13;3.50;;;;;;;;;;5064900;28;20021;-87
2022/04/27 05:21:29;;;;;;;5.00;3.53;;;;;;;;;;5066236;28;20086;-87
2022/04/27 05:23:55;;;;;;;4.35;3.25;;;8.50;90.90;;;;;;5062346;28;20020;-87
2022/04/27 05:26:20;;;;;;;5.10;2.97;;;;;;;;;;5061776;28;20033;-88
2022/04/27 05:34:16;;;;;;;6.30;3.10;;;;;;;;;;5051206;28;20532;-88
2022/04/27 05:36:42;;;;;;;6.57;3.60;;;8.20;98.90;;;;;;5054640;28;20021;-88
2022/04/27 05:39:07;;;;;;;6.07;4.43;;;8.30;98.70;;;;;;5063335;28;20036;-86
2022/04/27 05:41:34;;;;;;;5.90;3.45;;;;;;;;;;5059335;28;20044;-88
2022/04/27 05:44:03;;;;;;;5.72;4.18;;;;;;;;;;5056431;28;20098;-87
2022/04/27 05:46:30;;;;;;;5.57;3.10;;;;;;;;;;5052808;28;20029;-88
2022/04/27 05:48:56;;;;;;;5.40;3.42;;;;;;;;;;5051929;28;20096;-88
2022/04/27 05:51:22;;;;;;;6.47;3.65;;;;;;;;;;5053432;28;20033;-88
2022/04/27 05:53:48;;;;;;;8.13;4.57;;;;;;;;;;5057444;28;20047;-88
2022/04/27 05:56:15;;;;;;;5.95;3.67;;;;;;;;;;5057481;28;20027;-88
2022/04/27 05:58:41;;;;;;;5.47;4.25;;;;;;;;;;5063014;28;20546;-88
2022/04/27 06:01:07;;;;;;;7.70;3.78;;;;;;;;;;5065484;28;20131;-88
2022/04/27 06:03:34;;;;;;;7.05;4.68;;;9.10;89.90;;;;;;5052973;28;20353;-89
2022/04/27 06:06:00;;;;;;;6.50;3.25;;;;;;;;;;5053112;28;20028;-88
2022/04/27 06:08:26;;;;;;;7.25;3.75;;;;;;;;;;5063376;28;20033;-88
2022/04/27 06:10:52;;;;;;;13.18;4.13;;;;;;;;;;5064978;28;20043;-87
2022/04/27 06:13:19;;;;;;;6.03;3.40;;;;;;;;;;5064033;28;20069;-85
2022/04/27 06:15:45;;;;;;;5.45;3.15;;;;;;;;;;5049842;28;20021;-84
2022/04/27 06:18:11;;;;;;;12.98;4.68;;;;;;;;;;5054627;28;20038;-86
2022/04/27 06:20:37;;;;;;;9.07;3.40;;;;;;;;;;5054203;28;20071;-86
2022/04/27 06:23:03;;;;;;;11.77;3.80;;;;;;;;;;5052968;28;20039;-87
2022/04/27 06:25:30;;;;;;;7.03;4.47;;;;;;;;;;5049712;28;20029;-85
2022/04/27 06:27:56;;;;;;;10.07;3.97;;;;;;;;;;5064418;28;20032;-87
2022/04/27 06:30:24;;;;;;;4.88;3.63;;;;;;;;;;5052575;28;20028;-86
2022/04/27 06:32:51;;;;;;;5.93;4.00;;;;;;;;;;5052625;28;20044;-87
2022/04/27 06:35:17;;;;;;;8.63;3.90;;;;;;;;;;5052385;28;20025;-86
2022/04/27 06:37:43;;;;;;;6.72;4.30;;;;;;;;;;5054946;28;20020;-85
2022/04/27 06:40:09;;;;;;;8.00;3.83;;;;;;;;;;5047927;28;20078;-84
2022/04/27 06:42:35;;;;;;;5.93;4.25;;;;;;;;;;5065098;28;20048;-89
2022/04/27 06:45:03;;;;;;;6.57;4.00;;;;;;;;;;5064630;28;20060;-87
2022/04/27 06:47:29;;;;;;;7.50;4.88;;;;;;;;;;5062287;28;20028;-87
2022/04/27 06:49:55;;;;;;;8.82;4.68;;;;;;;;;;5060862;28;20032;-87
2022/04/27 06:52:21;;;;;;;5.68;3.85;;;;;;;;;;5048419;28;20051;-84
2022/04/27 06:54:48;;;;;;;8.00;4.10;;;;;;;;;;5063647;28;20032;-85
2022/04/27 06:57:14;;;;;;;7.00;4.30;;;12.40;94.60;;;;;;5063958;28;20032;-81
2022/04/27 06:59:40;;;;;;;9.77;3.92;;;;;;;;;;5058879;28;20028;-81
2022/04/27 07:02:06;;;;;;;10.75;4.95;;;;;;;;;;5053021;28;20119;-84
2022/04/27 07:04:35;;;;;;;6.88;4.15;;;;;;;;;;5072019;28;20162;-88
2022/04/27 07:07:02;;;;;;;8.52;4.63;;;;;;;;;;5046364;28;20025;-85
2022/04/27 07:09:29;;;;;;;4.00;2.83;;;;;;;;;;5067073;28;20032;-83
2022/04/27 07:11:55;;;;;;;5.75;3.03;;;;;;;;;;5049731;28;20397;-83
2022/04/27 07:14:21;;;;;;;7.95;4.00;;;;;;;;;;5061124;28;20040;-83
2022/04/27 07:16:47;;;;;;;9.32;3.65;;;;;;;;;;5056409;28;20516;-84
2022/04/27 07:19:13;;;;;;;7.60;2.95;;;;;;;;;;5058638;28;20084;-85
2022/04/27 07:21:40;;;;;;;5.38;4.00;;;;;;;;;;5056198;28;20020;-86
2022/04/27 07:24:06;;;;;;;6.97;3.67;;;22.30;48.80;;;;;;5065475;28;20559;-84
2022/04/27 07:26:32;;;;;;;7.38;3.83;;;22.90;61.20;;;;;;5063001;28;20278;-84
2022/04/27 07:28:58;;;;;;;4.57;2.90;;;;;;;;;;5064562;28;20040;-88
2022/04/27 07:31:24;;;;;;;5.32;2.72;;;;;;;;;;5052660;28;20578;-88
2022/04/27 07:33:51;;;;;;;5.03;2.45;;;;;;;;;;5063773;28;20089;-87
2022/04/27 07:36:17;;;;;;;2.28;1.70;;;;;;;;;;5065807;28;20032;-86
2022/04/27 07:38:43;;;;;;;4.93;2.80;;;;;;;;;;5057912;28;20033;-88
2022/04/27 07:41:09;;;;;;;3.30;2.40;;;24.50;44.30;;;;;;5045463;28;20040;-85
2022/04/27 07:43:35;;;;;;;5.60;3.20;;;;;;;;;;5071558;28;20535;-85
2022/04/27 07:46:02;;;;;;;3.78;2.40;;;;;;;;;;5069158;28;20258;-85
2022/04/27 07:48:32;;;;;;;5.72;2.55;;;25.50;49.70;;;;;;5071383;28;20488;-86
2022/04/27 07:50:59;;;;;;;6.15;2.88;;;;;;;;;;5055542;28;20140;-87
2022/04/27 07:53:25;;;;;;;3.88;2.33;;;;;;;;;;5063356;28;20044;-86
2022/04/27 07:55:51;;;;;;;5.00;3.42;;;;;;;;;;5067106;28;20105;-87
2022/04/27 07:58:17;;;;;;;4.18;2.47;;;;;;;;;;5080906;28;20029;-84
2022/04/27 08:00:43;;;;;;;3.80;2.25;;;;;;;;;;5057769;28;20402;-86
2022/04/27 08:03:09;;;;;;;3.03;2.13;;;;;;;;;;5064687;28;20068;-84
2022/04/27 08:05:35;;;;;;;4.45;2.85;;;;;;;;;;5066850;28;20036;-85
2022/04/27 08:08:01;;;;;;;4.87;2.63;;;;;;;;;;5060994;28;20127;-87
2022/04/27 08:10:27;;;;;;;6.47;2.83;;;;;;;;;;5063011;28;20290;-86
2022/04/27 08:12:54;;;;;;;4.53;2.58;;;;;;;;;;5058941;28;20381;-86
2022/04/27 08:15:22;;;;;;;3.37;1.93;;;26.40;37.50;;;;;;5067568;28;20711;-86
2022/04/27 08:17:59;;;;;;;6.68;3.25;;;26.70;34.30;;;;;;5064101;28;20025;-86
2022/04/27 08:23:20;;;;;;;7.05;3.10;;;;;;;;;;5062552;28;20032;-85
2022/04/27 08:25:47;;;;;;;3.38;2.17;;;27.50;34.20;;;;;;5067833;28;20069;-86
2022/04/27 08:28:14;;;;;;;5.72;2.70;;;;;;;;;;5080833;28;20040;-85
2022/04/27 08:30:41;;;;;;;5.25;3.15;;;;;;;;;;5062670;28;20059;-80
2022/04/27 08:33:07;;;;;;;4.50;2.63;;;;;;;;;;5071758;28;20036;-85
2022/04/27 08:35:34;;;;;;;3.63;2.75;;;;;;;;;;5071321;28;20059;-85
2022/04/27 08:38:00;;;;;;;3.72;1.85;;;;;;;;;;5062967;28;20033;-86
2022/04/27 08:40:26;;;;;;;3.75;2.22;;;;;;;;;;5047717;28;20064;-86
2022/04/27 08:42:53;;;;;;;6.03;2.80;;;26.30;36.20;;;;;;5061719;28;20037;-86
2022/04/27 08:45:19;;;;;;;3.38;2.83;;;;;;;;;;5054715;28;20029;-85
2022/04/27 08:47:46;;;;;;;6.65;3.38;;;;;;;;;;5056299;28;20052;-87
2022/04/27 08:50:13;;;;;;;5.15;2.70;;;27.50;34.40;;;;;;5063540;28;20081;-83
2022/04/27 08:52:40;;;;;;;6.25;3.13;;;;;;;;;;5056243;28;20043;-83
2022/04/27 08:55:07;;;;;;;5.18;3.13;;;;;;;;;;5066339;28;20033;-85
2022/04/27 08:57:33;;;;;;;4.87;2.80;;;;;;;;;;5057728;28;20028;-84
2022/04/27 08:59:59;;;;;;;6.93;3.92;;;;;;;;;;5054008;28;20044;-84
2022/04/27 09:02:28;;;;;;;6.80;3.57;;;;;;;;;;5048562;28;20115;-84
2022/04/27 09:05:06;;;;;;;4.43;2.50;;;;;;;;;;5061539;28;20366;-85
2022/04/27 09:07:43;;;;;;;5.05;2.70;;;27.50;34.60;;;;;;5065045;28;20033;-90
2022/04/27 09:10:14;;;;;;;7.10;2.70;;;;;;;;;;5063130;28;20021;-89
2022/04/27 09:12:44;;;;;;;4.68;2.47;;;26.80;32.40;;;;;;5073143;28;20554;-89
2022/04/27 09:15:10;;;;;;;6.55;3.05;;;;;;;;;;5054266;28;20196;-90
2022/04/27 09:23:22;;;;;;;3.30;2.03;;;27.40;31.70;;;;;;5056268;28;20167;-89
2022/04/27 09:25:48;;;;;;;4.57;2.20;;;;;;;;;;5063645;28;20059;-90
2022/04/27 09:28:14;;;;;;;5.85;3.00;;;;;;;;;;5049156;28;20036;-88
2022/04/27 09:30:43;;;;;;;3.13;2.05;;;;;;;;;;5059175;28;20532;-90
2022/04/27 09:33:09;;;;;;;3.80;1.73;;;;;;;;;;5057862;28;20051;-89
2022/04/27 09:35:36;;;;;;;3.00;2.07;;;28.10;32.10;;;;;;5065073;28;20472;-89
2022/04/27 09:38:15;;;;;;;2.20;1.60;;;28.50;32.70;;;;;;5061648;28;20025;-90
2022/04/27 09:40:56;;;;;;;3.40;1.67;;;;;;;;;;5056051;28;20576;-90
2022/04/27 09:43:43;;;;;;;2.85;1.42;;;28.90;31.70;;;;;;5060636;28;20036;-92
2022/04/27 09:46:22;;;;;;;2.25;1.77;;;28.80;30.30;;;;;;5062632;28;20033;-90
2022/04/27 09:49:11;;;;;;;2.35;1.42;;;28.70;31.20;;;;;;5070343;28;20119;-89
2022/04/27 09:51:37;;;;;;;3.78;2.15;;;;;;;;;;5052967;28;20032;-90
2022/04/27 09:54:04;;;;;;;4.28;1.52;;;28.10;29.90;;;;;;5063424;28;20137;-90
2022/04/27 09:56:35;;;;;;;1.60;1.35;;;;;;;;;;5059604;28;20033;-89
2022/04/27 09:59:07;;;;;;;2.63;1.55;;;28.60;29.80;;;;;;5051957;28;20028;-88
2022/04/27 10:01:36;;;;;;;2.70;1.50;;;;;;;;;;5068755;28;20081;-90
2022/04/27 10:04:06;;;;;;;3.85;1.95;;;29.00;30.30;;;;;;5064542;28;20060;-85
2022/04/27 10:06:33;;;;;;;9.13;2.20;;;29.60;31.30;;;;;;5064473;28;20485;-86
2022/04/27 10:09:00;;;;;;;2.83;1.70;;;;;;;;;;5054512;28;20448;-87
2022/04/27 10:11:27;;;;;;;7.05;1.95;;;29.70;29.60;;;;;;5057439;28;20093;-87
2022/04/27 10:13:56;;;;;;;2.78;1.60;;;;;;;;;;5063322;28;20051;-89
2022/04/27 10:16:24;;;;;;;1.85;0.95;;;29.50;29.40;;;;;;5056349;28;20028;-87
2022/04/27 10:18:50;;;;;;;2.45;1.23;;;;;;;;;;5062989;28;20082;-88
2022/04/27 10:21:43;;;;;;;2.53;1.42;;;29.60;29.80;;;;;;5049432;28;20120;-87
2022/04/27 10:24:10;;;;;;;2.70;1.45;;;;;;;;;;5053087;28;20036;-88
2022/04/27 10:26:36;;;;;;;3.08;1.58;;;;;;;;;;5062271;28;20708;-89
2022/04/27 10:29:06;;;;;;;1.67;1.02;;;29.60;30.70;;;;;;5061553;28;20032;-87
2022/04/27 10:31:42;;;;;;;2.15;1.13;;;29.50;45.20;;;;;;5043099;28;20047;-87
2022/04/27 10:34:20;;;;;;;2.72;1.52;;;29.50;32.00;;;;;;5065209;28;20126;-88
2022/04/27 10:36:47;;;;;;;2.78;1.65;;;29.80;32.00;;;;;;5064989;28;20029;-88
2022/04/27 10:39:16;;;;;;;4.75;1.52;;;;;;;;;;5057866;28;20051;-87
2022/04/27 10:41:43;;;;;;;2.80;1.80;;;;;;;;;;5053841;28;20394;-88
2022/04/27 10:44:09;;;;;;;;;;;30.10;30.70;;;;;;5060722;28;20029;-85
2022/04/27 10:46:38;;;;;;;4.00;2.07;;;;;;;;;;5050994;28;20082;-86
2022/04/27 10:49:33;;;;;;;3.97;2.42;;;29.60;30.30;;;;;;5049619;28;20023;-86
2022/04/27 10:52:03;;;;;;;4.22;1.65;;;;;;;;;;5048515;28;20098;-86
2022/04/27 10:54:33;;;;;;;3.95;2.20;;;;;;;;;;5051593;28;20391;-82
2022/04/27 10:57:18;;;;;;;2.75;1.77;;;;;;;;;;5058758;28;20036;-84
2022/04/27 10:59:44;;;;;;;2.50;1.50;;;;;;;;;;5060387;28;20041;-83
2022/04/27 11:02:41;;;;;;;3.15;1.88;;;28.60;33.40;;;;;;5049879;28;20064;-84
2022/04/27 11:05:13;;;;;;;3.92;1.55;;;28.00;32.70;;;;;;5062935;28;20518;-83
2022/04/27 11:07:59;;;;;;;3.53;2.22;;;27.50;35.20;;;;;;5061550;28;20029;-84
2022/04/27 11:10:25;;;;;;;2.63;1.97;;;;;;;;;;5061312;28;20120;-84
2022/04/27 11:12:52;;;;;;;4.80;1.83;;;26.50;35.00;;;;;;5054860;28;20037;-84
2022/04/27 11:15:18;;;;;;;10.27;2.08;;;;;;;;;;5056401;28;20065;-84
2022/04/27 11:17:44;;;;;;;5.70;2.60;;;;;;;;;;5061660;28;20110;-83
2022/04/27 11:20:27;;;;;;;4.35;2.55;;;;;;;;;;5065671;28;20086;-83
2022/04/27 11:22:53;;;;;;;5.75;1.98;;;;;;;;;;5054779;28;20047;-83
2022/04/27 11:25:23;;;;;;;3.08;1.80;;;;;;;;;;5067352;28;20029;-83
2022/04/27 11:27:50;;;;;;;2.70;2.05;;;;;;;;;;5060034;28;20512;-83
2022/04/27 11:30:16;;;;;;;5.18;1.92;;;;;;;;;;5078260;28;20032;-84
2022/04/27 11:32:45;;;;;;;3.80;2.10;;;;;;;;;;5053901;28;20036;-83
2022/04/27 11:35:11;;;;;;;4.38;2.63;;;;;;;;;;5066492;28;20025;-83
2022/04/27 11:37:38;;;;;;;3.90;2.28;;;;;;;;;;5068082;28;20024;-83
2022/04/27 11:40:12;;;;;;;7.00;3.30;;;;;;;;;;5056467;28;20035;-83
2022/04/27 11:42:41;;;;;;;4.43;1.92;;;24.40;40.80;;;;;;5053488;28;20659;-83
2022/04/27 11:45:08;;;;;;;3.95;2.58;;;;;;;;;;5055342;28;20151;-84
2022/04/27 11:47:34;;;;;;;;;;;;;;;;;;5060225;28;20040;-82
2022/04/27 11:50:02;;;;;;;3.55;2.33;;;;;;;;;;5061176;28;19913;-83
2022/04/27 11:52:28;;;;;;;;;;;;;;;;;;5053681;28;20047;-83
2022/04/27 11:55:00;;;;;;;4.38;2.80;;;;;;;;;;5068630;28;20361;-83
2022/04/27 11:57:26;;;;;;;4.07;2.70;;;;;;;;;;5065302;28;20405;-83
2022/04/27 11:59:52;;;;;;;10.00;3.03;;;;;;;;;;5056376;28;20037;-82
2022/04/27 12:02:25;;;;;;;5.32;2.92;;;;;;;;;;5050354;28;20282;-82
2022/04/27 12:04:52;;;;;;;6.45;3.17;;;;;;;;;;5065464;28;20029;-81
2022/04/27 12:07:20;;;;;;;6.67;3.03;;;23.10;59.40;;;;;;5066252;28;20025;-82
2022/04/27 12:10:07;;;;;;;4.43;3.10;;;22.90;42.40;;;;;;5070778;28;20476;-82
2022/04/27 12:12:33;;;;;;;4.75;2.35;;;22.90;43.60;;;;;;5058652;28;20025;-83
2022/04/27 12:15:07;;;;;;;6.13;3.30;;;22.80;41.40;;;;;;5069516;28;20101;-82
2022/04/27 12:17:46;;;;;;;4.35;2.88;;;22.40;42.10;;;;;;5054307;28;20078;-82
2022/04/27 12:20:33;;;;;;;6.07;2.70;;;;;;;;;;5064028;28;20032;-83
2022/04/27 12:23:08;;;;;;;5.65;3.30;;;22.20;42.00;;;;;;5047741;28;20511;-82
2022/04/27 12:25:37;;;;;;;4.75;2.55;;;22.10;46.30;;;;;;5066532;28;20043;-82
2022/04/27 12:28:08;;;;;;;4.28;2.30;;;;;;;;;;5066820;28;20028;-82
2022/04/27 12:30:41;;;;;;;3.85;2.42;;;22.20;53.10;;;;;;5077289;28;20059;-82
2022/04/27 12:33:07;;;;;;;4.18;2.97;;;;;;;;;;5058105;28;20047;-83
2022/04/27 12:38:19;;;;;;;3.10;2.30;;;;;;;;;;5063555;28;20162;-83
2022/04/27 12:40:45;;;;;;;5.90;2.45;;;;;;;;;;5057189;28;20029;-84
2022/04/27 12:43:13;;;;;;;13.80;3.00;;;22.00;45.70;;;;;;5061459;28;20090;-83
2022/04/27 12:45:40;;;;;;;3.67;2.17;;;;;;;;;;5068488;28;20021;-83
2022/04/27 12:48:06;;;;;;;5.25;2.92;;;;;;;;;;5054422;28;20064;-83
2022/04/27 12:50:34;;;;;;;6.28;3.60;;;21.70;45.30;;;;;;5067475;28;20024;-84
2022/04/27 12:53:10;;;;;;;3.90;2.33;;;;;;;;;;5054376;28;20032;-84
2022/04/27 12:55:36;;;;;;;6.22;2.70;;;;;;;;;;5063985;28;20482;-83
2022/04/27 12:58:03;;;;;;;11.43;3.00;;;;;;;;;;5066228;28;20142;-84
2022/04/27 13:00:39;;;;;;;5.88;2.13;;;;;;;;;;5058921;28;20037;-84
2022/04/27 13:03:08;;;;;;;3.78;2.38;;;21.40;44.20;;;;;;5058669;28;20039;-83
2022/04/27 13:05:35;;;;;;;4.93;2.65;;;;;;;;;;5064029;28;20071;-84
2022/04/27 13:08:01;;;;;;;6.18;2.50;;;;;;;;;;5061454;28;20020;-84
2022/04/27 13:13:11;;;;;;;3.38;1.90;;;;;;;;;;5060825;28;20043;-84
2022/04/27 13:15:37;;;;;;;3.50;1.92;;;;;;;;;;5062882;28;20553;-85
2022/04/27 13:18:03;;;;;;;3.22;2.05;;;;;;;;;;5066500;28;20024;-85
2022/04/27 13:20:29;;;;;;;4.28;1.83;;;;;;;;;;5059244;28;20046;-84
2022/04/27 13:22:55;;;;;;;3.05;2.13;;;;;;;;;;5051155;28;20021;-84
2022/04/27 13:25:21;;;;;;;2.70;1.35;;;;;;;;;;5063295;28;20920;-83
2022/04/27 13:27:47;;;;;;;2.22;1.73;;;;;;;;;;5051331;28;20112;-83
2022/04/27 13:30:13;;;;;;;3.70;1.70;;;;;;;;;;5062027;28;20119;-84
2022/04/27 13:32:41;;;;;;;14.30;1.80;;;;;;;;;;5049579;28;20127;-84
2022/04/27 13:35:07;;;;;;;2.33;1.55;;;;;;;;;;5058724;28;20081;-83
2022/04/27 13:37:33;;;;;;;2.57;2.07;;;;;;;;;;5060823;28;20108;-83
2022/04/27 13:39:59;;;;;;;3.22;1.55;;;;;;;;;;5063840;28;20173;-82
2022/04/27 13:42:25;;;;;;;3.00;1.63;;;;;;;;;;5053581;28;20414;-84
2022/04/27 13:44:52;;;;;;;4.95;1.40;;;;;;;;;;5066962;28;20032;-84
2022/04/27 13:47:18;;;;;;;3.88;2.00;;;;;;;;;;5061775;28;20095;-85
2022/04/27 13:49:46;;;;;;;2.58;1.30;;;;;;;;;;5065475;28;20028;-85
2022/04/27 13:52:11;;;;;;;;;;;20.60;42.40;;;;;;5047495;28;20036;-84
2022/04/27 13:54:37;;;;;;;2.28;1.42;;;;;;;;;;5061994;28;20389;-84
2022/04/27 13:57:04;;;;;;;1.75;1.15;;;;;;;;;;5063631;28;20032;-85
2022/04/27 13:59:30;;;;;;;2.33;1.45;;;;;;;;;;5058422;28;20044;-84
2022/04/27 14:01:58;;;;;;;2.60;1.50;;;;;;;;;;5060268;28;20035;-83
2022/04/27 14:04:24;;;;;;;3.05;1.77;;;;;;;;;;5064379;28;20033;-81
2022/04/27 14:06:50;;;;;;;4.90;1.80;;;;;;;;;;5054937;28;20032;-82
2022/04/27 14:09:16;;;;;;;3.13;1.60;;;;;;;;;;5055964;28;20024;-85
2022/04/27 14:14:28;;;;;;;1.83;1.10;;;;;;;;;;5062336;28;20140;-84
2022/04/27 14:19:39;;;;;;;3.35;1.92;;;;;;;;;;5061852;28;20063;-84
2022/04/27 14:22:05;;;;;;;2.35;1.25;;;20.30;54.90;;;;;;5048868;28;20501;-84
2022/04/27 14:24:32;;;;;;;2.00;1.58;;;;;;;;;;5063635;28;20417;-82
2022/04/27 14:26:58;;;;;;;2.03;0.77;;;;;;;;;;5060637;28;20025;-81
2022/04/27 14:29:24;;;;;;;1.90;1.10;;;;;;;;;;5062171;28;20071;-84
2022/04/27 14:31:50;;;;;;;1.95;0.88;;;;;;;;;;5051657;28;20032;-84
2022/04/27 14:34:16;;;;;;;1.30;1.20;;;;;;;;;;5062869;28;20045;-84
2022/04/27 14:36:42;;;;;;;3.47;0.75;;;;;;;;;;5065395;28;20447;-84
2022/04/27 14:39:08;;;;;;;2.55;1.08;;;;;;;;;;5063578;28;20040;-83
2022/04/27 14:41:35;;;;;;;15.57;0.80;;;;;;;;;;5050023;28;20051;-85
2022/04/27 14:44:01;;;;;;;1.15;0.65;;;;;;;;;;5059811;28;20032;-84
2022/04/27 14:46:27;;;;;;;1.30;0.85;;;;;;;;;;5061877;28;20029;-84
2022/04/27 14:48:53;;;;;;;0.85;0.70;;;;;;;;;;5062229;28;20035;-83
2022/04/27 14:51:19;;;;;;;1.65;1.00;;;;;;;;;;5048126;28;20059;-87
2022/04/27 14:53:45;;;;;;;2.35;1.08;;;;;;;;;;5061906;28;20041;-86
2022/04/27 14:56:12;;;;;;;2.00;1.25;;;;;;;;;;5062914;28;20020;-85
2022/04/27 14:58:38;;;;;;;1.77;1.20;;;;;;;;;;5061703;28;20032;-85